sensor_id;sensor_type;location;lat;lon;timestamp;P1;P2;P0
83543;PMS5003;73487;54.448;-0.942;2023-11-19T00:00:58;11;8;3
83543;PMS5003;73487;54.448;-0.942;2023-11-19T00:03:58;6;3;1
83543;PMS5003;73487;54.448;-0.942;2023-11-19T00:06:58;8;6;3
83543;PMS5003;73487;54.448;-0.942;2023-11-19T00:09:58;5;4;2
83543;PMS5003;73487;54.448;-0.942;2023-11-19T00:12:58;5;5;2
83543;PMS5003;73487;54.448;-0.942;2023-11-19T00:15:58;16;13;6
83543;PMS5003;73487;54.448;-0.942;2023-11-19T00:18:58;5;4;2
83543;PMS5003;73487;54.448;-0.942;2023-11-19T00:21:58;12;6;2
83543;PMS5003;73487;54.448;-0.942;2023-11-19T00:24:58;9;5;1
83543;PMS5003;73487;54.448;-0.942;2023-11-19T00:27:58;7;5;3
83543;PMS5003;73487;54.448;-0.942;2023-11-19T00:30:58;8;6;3
83543;PMS5003;73487;54.448;-0.942;2023-11-19T00:33:58;5;3;1
83543;PMS5003;73487;54.448;-0.942;2023-11-19T00:36:58;7;3;2
83543;PMS5003;73487;54.448;-0.942;2023-11-19T00:39:58;6;5;2
83543;PMS5003;73487;54.448;-0.942;2023-11-19T00:42:58;6;5;3
83543;PMS5003;73487;54.448;-0.942;2023-11-19T00:45:58;6;5;3
83543;PMS5003;73487;54.448;-0.942;2023-11-19T00:48:58;5;4;1
83543;PMS5003;73487;54.448;-0.942;2023-11-19T00:51:58;11;9;3
83543;PMS5003;73487;54.448;-0.942;2023-11-19T00:54:58;10;7;4
83543;PMS5003;73487;54.448;-0.942;2023-11-19T00:57:58;8;5;3
83543;PMS5003;73487;54.448;-0.942;2023-11-19T01:00:58;6;5;2
83543;PMS5003;73487;54.448;-0.942;2023-11-19T01:03:58;9;5;2
83543;PMS5003;73487;54.448;-0.942;2023-11-19T01:06:58;7;5;2
83543;PMS5003;73487;54.448;-0.942;2023-11-19T01:09:58;7;6;3
83543;PMS5003;73487;54.448;-0.942;2023-11-19T01:12:58;12;8;2
83543;PMS5003;73487;54.448;-0.942;2023-11-19T01:15:58;11;8;5
83543;PMS5003;73487;54.448;-0.942;2023-11-19T01:18:58;6;4;3
83543;PMS5003;73487;54.448;-0.942;2023-11-19T01:21:58;8;7;3
83543;PMS5003;73487;54.448;-0.942;2023-11-19T01:24:58;3;1;0
83543;PMS5003;73487;54.448;-0.942;2023-11-19T01:27:58;5;5;2
83543;PMS5003;73487;54.448;-0.942;2023-11-19T01:30:58;7;6;3
83543;PMS5003;73487;54.448;-0.942;2023-11-19T01:33:58;6;5;2
83543;PMS5003;73487;54.448;-0.942;2023-11-19T01:36:58;4;3;2
83543;PMS5003;73487;54.448;-0.942;2023-11-19T01:39:58;7;5;2
83543;PMS5003;73487;54.448;-0.942;2023-11-19T01:42:58;12;11;6
83543;PMS5003;73487;54.448;-0.942;2023-11-19T01:45:58;12;9;5
83543;PMS5003;73487;54.448;-0.942;2023-11-19T01:48:58;5;4;3
83543;PMS5003;73487;54.448;-0.942;2023-11-19T01:51:58;7;7;4
83543;PMS5003;73487;54.448;-0.942;2023-11-19T01:54:58;9;8;5
83543;PMS5003;73487;54.448;-0.942;2023-11-19T01:57:59;12;6;4
83543;PMS5003;73487;54.448;-0.942;2023-11-19T02:00:58;4;3;2
83543;PMS5003;73487;54.448;-0.942;2023-11-19T02:03:58;9;5;1
83543;PMS5003;73487;54.448;-0.942;2023-11-19T02:06:58;6;3;1
83543;PMS5003;73487;54.448;-0.942;2023-11-19T02:09:58;7;6;2
83543;PMS5003;73487;54.448;-0.942;2023-11-19T02:12:58;6;5;2
83543;PMS5003;73487;54.448;-0.942;2023-11-19T02:15:58;6;6;3
83543;PMS5003;73487;54.448;-0.942;2023-11-19T02:18:58;12;7;4
83543;PMS5003;73487;54.448;-0.942;2023-11-19T02:21:58;8;6;2
83543;PMS5003;73487;54.448;-0.942;2023-11-19T02:24:59;7;5;2
83543;PMS5003;73487;54.448;-0.942;2023-11-19T02:27:59;8;7;3
83543;PMS5003;73487;54.448;-0.942;2023-11-19T02:31:28;6;6;2
83543;PMS5003;73487;54.448;-0.942;2023-11-19T02:34:28;7;4;1
83543;PMS5003;73487;54.448;-0.942;2023-11-19T02:37:28;6;5;3
83543;PMS5003;73487;54.448;-0.942;2023-11-19T02:40:28;9;5;3
83543;PMS5003;73487;54.448;-0.942;2023-11-19T02:43:28;7;4;2
83543;PMS5003;73487;54.448;-0.942;2023-11-19T02:46:28;5;5;3
83543;PMS5003;73487;54.448;-0.942;2023-11-19T02:49:28;9;7;3
83543;PMS5003;73487;54.448;-0.942;2023-11-19T02:52:28;8;5;3
83543;PMS5003;73487;54.448;-0.942;2023-11-19T02:55:28;7;6;3
83543;PMS5003;73487;54.448;-0.942;2023-11-19T02:58:28;12;7;4
83543;PMS5003;73487;54.448;-0.942;2023-11-19T03:01:28;9;6;3
83543;PMS5003;73487;54.448;-0.942;2023-11-19T03:04:28;6;4;2
83543;PMS5003;73487;54.448;-0.942;2023-11-19T03:07:28;5;3;2
83543;PMS5003;73487;54.448;-0.942;2023-11-19T03:10:28;7;5;1
83543;PMS5003;73487;54.448;-0.942;2023-11-19T03:13:28;5;3;2
83543;PMS5003;73487;54.448;-0.942;2023-11-19T03:16:28;9;6;2
83543;PMS5003;73487;54.448;-0.942;2023-11-19T03:19:28;5;3;1
83543;PMS5003;73487;54.448;-0.942;2023-11-19T03:22:28;5;5;2
83543;PMS5003;73487;54.448;-0.942;2023-11-19T03:25:28;7;6;3
83543;PMS5003;73487;54.448;-0.942;2023-11-19T03:28:28;4;3;2
83543;PMS5003;73487;54.448;-0.942;2023-11-19T03:31:28;6;3;1
83543;PMS5003;73487;54.448;-0.942;2023-11-19T03:34:28;4;4;2
83543;PMS5003;73487;54.448;-0.942;2023-11-19T03:37:28;9;5;3
83543;PMS5003;73487;54.448;-0.942;2023-11-19T03:40:28;6;5;2
83543;PMS5003;73487;54.448;-0.942;2023-11-19T03:43:28;7;4;3
83543;PMS5003;73487;54.448;-0.942;2023-11-19T03:46:28;4;3;2
83543;PMS5003;73487;54.448;-0.942;2023-11-19T03:49:28;9;9;4
83543;PMS5003;73487;54.448;-0.942;2023-11-19T03:52:28;6;4;2
83543;PMS5003;73487;54.448;-0.942;2023-11-19T03:55:28;7;6;3
83543;PMS5003;73487;54.448;-0.942;2023-11-19T03:58:28;7;6;2
83543;PMS5003;73487;54.448;-0.942;2023-11-19T04:01:28;6;4;2
83543;PMS5003;73487;54.448;-0.942;2023-11-19T04:04:28;6;5;1
83543;PMS5003;73487;54.448;-0.942;2023-11-19T04:07:28;10;5;2
83543;PMS5003;73487;54.448;-0.942;2023-11-19T04:10:28;5;4;1
83543;PMS5003;73487;54.448;-0.942;2023-11-19T04:13:28;11;8;4
83543;PMS5003;73487;54.448;-0.942;2023-11-19T04:16:28;9;6;3
83543;PMS5003;73487;54.448;-0.942;2023-11-19T04:19:28;4;3;1
83543;PMS5003;73487;54.448;-0.942;2023-11-19T04:22:28;5;4;2
83543;PMS5003;73487;54.448;-0.942;2023-11-19T04:25:28;6;4;2
83543;PMS5003;73487;54.448;-0.942;2023-11-19T04:28:28;3;3;2
83543;PMS5003;73487;54.448;-0.942;2023-11-19T04:31:29;8;6;3
83543;PMS5003;73487;54.448;-0.942;2023-11-19T04:34:28;5;3;1
83543;PMS5003;73487;54.448;-0.942;2023-11-19T04:37:28;3;3;2
83543;PMS5003;73487;54.448;-0.942;2023-11-19T04:40:28;3;3;1
83543;PMS5003;73487;54.448;-0.942;2023-11-19T04:43:28;8;7;3
83543;PMS5003;73487;54.448;-0.942;2023-11-19T04:46:28;5;5;4
83543;PMS5003;73487;54.448;-0.942;2023-11-19T04:49:28;3;2;1
83543;PMS5003;73487;54.448;-0.942;2023-11-19T04:52:28;6;6;3
83543;PMS5003;73487;54.448;-0.942;2023-11-19T04:55:28;8;6;3
83543;PMS5003;73487;54.448;-0.942;2023-11-19T04:58:28;5;5;3
83543;PMS5003;73487;54.448;-0.942;2023-11-19T05:01:28;5;5;2
83543;PMS5003;73487;54.448;-0.942;2023-11-19T05:04:28;8;5;4
83543;PMS5003;73487;54.448;-0.942;2023-11-19T05:07:28;5;4;2
83543;PMS5003;73487;54.448;-0.942;2023-11-19T05:10:28;7;6;3
83543;PMS5003;73487;54.448;-0.942;2023-11-19T05:13:28;11;6;2
83543;PMS5003;73487;54.448;-0.942;2023-11-19T05:16:28;6;4;2
83543;PMS5003;73487;54.448;-0.942;2023-11-19T05:19:28;6;5;2
83543;PMS5003;73487;54.448;-0.942;2023-11-19T05:22:28;7;6;3
83543;PMS5003;73487;54.448;-0.942;2023-11-19T05:25:28;8;7;4
83543;PMS5003;73487;54.448;-0.942;2023-11-19T05:28:28;5;4;1
83543;PMS5003;73487;54.448;-0.942;2023-11-19T05:31:28;7;6;3
83543;PMS5003;73487;54.448;-0.942;2023-11-19T05:34:28;10;7;3
83543;PMS5003;73487;54.448;-0.942;2023-11-19T05:37:28;5;4;2
83543;PMS5003;73487;54.448;-0.942;2023-11-19T05:40:28;6;5;3
83543;PMS5003;73487;54.448;-0.942;2023-11-19T05:43:28;7;6;4
83543;PMS5003;73487;54.448;-0.942;2023-11-19T05:46:28;10;7;3
83543;PMS5003;73487;54.448;-0.942;2023-11-19T05:49:28;7;5;2
83543;PMS5003;73487;54.448;-0.942;2023-11-19T05:52:28;10;6;3
83543;PMS5003;73487;54.448;-0.942;2023-11-19T05:55:58;5;3;1
83543;PMS5003;73487;54.448;-0.942;2023-11-19T05:58:58;4;3;2
83543;PMS5003;73487;54.448;-0.942;2023-11-19T06:01:58;4;3;1
83543;PMS5003;73487;54.448;-0.942;2023-11-19T06:04:58;7;6;2
83543;PMS5003;73487;54.448;-0.942;2023-11-19T06:07:58;5;4;2
83543;PMS5003;73487;54.448;-0.942;2023-11-19T06:10:58;4;3;2
83543;PMS5003;73487;54.448;-0.942;2023-11-19T06:13:58;5;3;1
83543;PMS5003;73487;54.448;-0.942;2023-11-19T06:16:58;6;6;1
83543;PMS5003;73487;54.448;-0.942;2023-11-19T06:19:58;4;3;1
83543;PMS5003;73487;54.448;-0.942;2023-11-19T06:22:58;4;3;2
83543;PMS5003;73487;54.448;-0.942;2023-11-19T06:25:58;6;6;4
83543;PMS5003;73487;54.448;-0.942;2023-11-19T06:28:58;7;5;2
83543;PMS5003;73487;54.448;-0.942;2023-11-19T06:31:58;3;2;1
83543;PMS5003;73487;54.448;-0.942;2023-11-19T06:34:58;3;2;1
83543;PMS5003;73487;54.448;-0.942;2023-11-19T06:37:58;2;2;1
83543;PMS5003;73487;54.448;-0.942;2023-11-19T06:40:58;6;4;3
83543;PMS5003;73487;54.448;-0.942;2023-11-19T06:43:58;6;5;3
83543;PMS5003;73487;54.448;-0.942;2023-11-19T06:46:58;5;2;1
83543;PMS5003;73487;54.448;-0.942;2023-11-19T06:49:58;5;3;1
83543;PMS5003;73487;54.448;-0.942;2023-11-19T06:52:58;4;4;2
83543;PMS5003;73487;54.448;-0.942;2023-11-19T06:55:58;3;3;1
83543;PMS5003;73487;54.448;-0.942;2023-11-19T06:58:58;2;2;1
83543;PMS5003;73487;54.448;-0.942;2023-11-19T07:01:58;8;6;3
83543;PMS5003;73487;54.448;-0.942;2023-11-19T07:04:58;3;2;0
83543;PMS5003;73487;54.448;-0.942;2023-11-19T07:07:58;5;4;2
83543;PMS5003;73487;54.448;-0.942;2023-11-19T07:10:58;5;3;1
83543;PMS5003;73487;54.448;-0.942;2023-11-19T07:13:58;2;2;1
83543;PMS5003;73487;54.448;-0.942;2023-11-19T07:16:59;4;4;1
83543;PMS5003;73487;54.448;-0.942;2023-11-19T07:19:58;6;5;3
83543;PMS5003;73487;54.448;-0.942;2023-11-19T07:22:58;5;4;1
83543;PMS5003;73487;54.448;-0.942;2023-11-19T07:25:58;4;4;2
83543;PMS5003;73487;54.448;-0.942;2023-11-19T07:28:58;4;3;2
83543;PMS5003;73487;54.448;-0.942;2023-11-19T07:31:58;4;3;2
83543;PMS5003;73487;54.448;-0.942;2023-11-19T07:34:58;4;3;2
83543;PMS5003;73487;54.448;-0.942;2023-11-19T07:37:58;6;4;2
83543;PMS5003;73487;54.448;-0.942;2023-11-19T07:40:58;6;3;1
83543;PMS5003;73487;54.448;-0.942;2023-11-19T07:43:58;2;2;1
83543;PMS5003;73487;54.448;-0.942;2023-11-19T07:46:58;4;3;1
83543;PMS5003;73487;54.448;-0.942;2023-11-19T07:49:58;4;2;1
83543;PMS5003;73487;54.448;-0.942;2023-11-19T07:52:58;6;5;3
83543;PMS5003;73487;54.448;-0.942;2023-11-19T07:55:58;5;4;2
83543;PMS5003;73487;54.448;-0.942;2023-11-19T07:59:00;5;4;1
83543;PMS5003;73487;54.448;-0.942;2023-11-19T08:01:58;3;2;1
83543;PMS5003;73487;54.448;-0.942;2023-11-19T08:04:58;5;5;2
83543;PMS5003;73487;54.448;-0.942;2023-11-19T08:07:58;7;4;3
83543;PMS5003;73487;54.448;-0.942;2023-11-19T08:10:58;5;4;2
83543;PMS5003;73487;54.448;-0.942;2023-11-19T08:13:58;3;2;2
83543;PMS5003;73487;54.448;-0.942;2023-11-19T08:16:58;5;5;3
83543;PMS5003;73487;54.448;-0.942;2023-11-19T08:19:58;4;3;2
83543;PMS5003;73487;54.448;-0.942;2023-11-19T08:22:58;3;2;1
83543;PMS5003;73487;54.448;-0.942;2023-11-19T08:25:58;10;7;2
83543;PMS5003;73487;54.448;-0.942;2023-11-19T08:28:58;4;3;1
83543;PMS5003;73487;54.448;-0.942;2023-11-19T08:31:59;4;4;3
83543;PMS5003;73487;54.448;-0.942;2023-11-19T08:34:58;4;3;1
83543;PMS5003;73487;54.448;-0.942;2023-11-19T08:37:58;4;3;2
83543;PMS5003;73487;54.448;-0.942;2023-11-19T08:40:58;4;3;1
83543;PMS5003;73487;54.448;-0.942;2023-11-19T08:43:58;4;4;2
83543;PMS5003;73487;54.448;-0.942;2023-11-19T08:46:58;8;7;4
83543;PMS5003;73487;54.448;-0.942;2023-11-19T08:49:58;7;3;1
83543;PMS5003;73487;54.448;-0.942;2023-11-19T08:52:58;5;4;2
83543;PMS5003;73487;54.448;-0.942;2023-11-19T08:55:58;4;3;2
83543;PMS5003;73487;54.448;-0.942;2023-11-19T08:58:58;5;4;2
83543;PMS5003;73487;54.448;-0.942;2023-11-19T09:01:58;3;2;0
83543;PMS5003;73487;54.448;-0.942;2023-11-19T09:04:58;4;3;2
83543;PMS5003;73487;54.448;-0.942;2023-11-19T09:07:58;3;3;1
83543;PMS5003;73487;54.448;-0.942;2023-11-19T09:10:58;3;2;1
83543;PMS5003;73487;54.448;-0.942;2023-11-19T09:13:58;2;1;1
83543;PMS5003;73487;54.448;-0.942;2023-11-19T09:16:58;3;2;0
83543;PMS5003;73487;54.448;-0.942;2023-11-19T09:19:58;3;2;0
83543;PMS5003;73487;54.448;-0.942;2023-11-19T09:22:58;3;2;1
83543;PMS5003;73487;54.448;-0.942;2023-11-19T09:26:28;3;2;0
83543;PMS5003;73487;54.448;-0.942;2023-11-19T09:31:41;2;2;0
83543;PMS5003;73487;54.448;-0.942;2023-11-19T09:34:41;2;1;0
83543;PMS5003;73487;54.448;-0.942;2023-11-19T09:41:13;2;2;1
83543;PMS5003;73487;54.448;-0.942;2023-11-19T09:44:42;4;3;1
83543;PMS5003;73487;54.448;-0.942;2023-11-19T09:47:43;7;5;2
83543;PMS5003;73487;54.448;-0.942;2023-11-19T09:50:42;3;2;1
83543;PMS5003;73487;54.448;-0.942;2023-11-19T09:57:19;6;4;2
83543;PMS5003;73487;54.448;-0.942;2023-11-19T10:00:19;3;2;1
83543;PMS5003;73487;54.448;-0.942;2023-11-19T10:03:19;3;2;1
83543;PMS5003;73487;54.448;-0.942;2023-11-19T10:06:19;3;2;1
83543;PMS5003;73487;54.448;-0.942;2023-11-19T10:09:38;4;2;1
83543;PMS5003;73487;54.448;-0.942;2023-11-19T10:12:38;2;2;1
83543;PMS5003;73487;54.448;-0.942;2023-11-19T10:16:08;6;5;3
83543;PMS5003;73487;54.448;-0.942;2023-11-19T10:22:57;6;5;2
83543;PMS5003;73487;54.448;-0.942;2023-11-19T10:28:57;6;5;2
83543;PMS5003;73487;54.448;-0.942;2023-11-19T10:31:57;6;5;2
83543;PMS5003;73487;54.448;-0.942;2023-11-19T10:37:58;4;4;3
83543;PMS5003;73487;54.448;-0.942;2023-11-19T10:40:57;5;5;3
83543;PMS5003;73487;54.448;-0.942;2023-11-19T10:43:57;3;2;1
83543;PMS5003;73487;54.448;-0.942;2023-11-19T10:46:57;4;4;2
83543;PMS5003;73487;54.448;-0.942;2023-11-19T10:49:57;3;3;1
83543;PMS5003;73487;54.448;-0.942;2023-11-19T10:52:57;2;2;1
83543;PMS5003;73487;54.448;-0.942;2023-11-19T10:55:57;4;3;1
83543;PMS5003;73487;54.448;-0.942;2023-11-19T10:58:57;3;3;1
83543;PMS5003;73487;54.448;-0.942;2023-11-19T11:01:57;2;2;1
83543;PMS5003;73487;54.448;-0.942;2023-11-19T11:04:57;5;4;1
83543;PMS5003;73487;54.448;-0.942;2023-11-19T11:07:57;3;1;1
83543;PMS5003;73487;54.448;-0.942;2023-11-19T11:10:57;3;3;1
83543;PMS5003;73487;54.448;-0.942;2023-11-19T11:13:57;3;3;1
83543;PMS5003;73487;54.448;-0.942;2023-11-19T11:16:57;3;2;1
83543;PMS5003;73487;54.448;-0.942;2023-11-19T11:19:57;2;2;1
83543;PMS5003;73487;54.448;-0.942;2023-11-19T11:35:04;5;3;1
83543;PMS5003;73487;54.448;-0.942;2023-11-19T11:38:01;4;3;1
83543;PMS5003;73487;54.448;-0.942;2023-11-19T11:43:57;3;3;1
83543;PMS5003;73487;54.448;-0.942;2023-11-19T11:46:57;3;3;1
83543;PMS5003;73487;54.448;-0.942;2023-11-19T11:49:58;3;3;2
83543;PMS5003;73487;54.448;-0.942;2023-11-19T11:55:57;3;2;0
83543;PMS5003;73487;54.448;-0.942;2023-11-19T11:58:57;4;3;1
83543;PMS5003;73487;54.448;-0.942;2023-11-19T12:01:59;3;3;1
83543;PMS5003;73487;54.448;-0.942;2023-11-19T12:04:57;2;2;0
83543;PMS5003;73487;54.448;-0.942;2023-11-19T12:07:59;4;4;2
83543;PMS5003;73487;54.448;-0.942;2023-11-19T12:10:58;3;2;1
83543;PMS5003;73487;54.448;-0.942;2023-11-19T12:13:57;3;2;1
83543;PMS5003;73487;54.448;-0.942;2023-11-19T12:17:02;1;0;0
83543;PMS5003;73487;54.448;-0.942;2023-11-19T12:19:57;6;4;1
83543;PMS5003;73487;54.448;-0.942;2023-11-19T12:22:57;5;4;2
83543;PMS5003;73487;54.448;-0.942;2023-11-19T12:25:57;5;4;2
83543;PMS5003;73487;54.448;-0.942;2023-11-19T12:28:57;5;3;1
83543;PMS5003;73487;54.448;-0.942;2023-11-19T12:31:57;5;4;1
83543;PMS5003;73487;54.448;-0.942;2023-11-19T12:35:27;2;2;1
83543;PMS5003;73487;54.448;-0.942;2023-11-19T12:38:27;3;2;1
83543;PMS5003;73487;54.448;-0.942;2023-11-19T12:41:27;3;3;1
83543;PMS5003;73487;54.448;-0.942;2023-11-19T12:44:27;2;1;1
83543;PMS5003;73487;54.448;-0.942;2023-11-19T12:47:27;4;3;1
83543;PMS5003;73487;54.448;-0.942;2023-11-19T12:50:27;4;4;2
83543;PMS5003;73487;54.448;-0.942;2023-11-19T12:53:27;2;2;1
83543;PMS5003;73487;54.448;-0.942;2023-11-19T12:56:27;4;3;2
83543;PMS5003;73487;54.448;-0.942;2023-11-19T12:59:27;4;3;1
83543;PMS5003;73487;54.448;-0.942;2023-11-19T13:08:27;5;4;1
83543;PMS5003;73487;54.448;-0.942;2023-11-19T13:11:33;3;2;1
83543;PMS5003;73487;54.448;-0.942;2023-11-19T13:17:27;3;2;1
83543;PMS5003;73487;54.448;-0.942;2023-11-19T13:20:27;4;4;2
83543;PMS5003;73487;54.448;-0.942;2023-11-19T13:23:27;6;5;3
83543;PMS5003;73487;54.448;-0.942;2023-11-19T13:26:27;3;3;1
83543;PMS5003;73487;54.448;-0.942;2023-11-19T13:29:27;3;2;1
83543;PMS5003;73487;54.448;-0.942;2023-11-19T13:32:27;3;2;1
83543;PMS5003;73487;54.448;-0.942;2023-11-19T13:35:27;2;2;1
83543;PMS5003;73487;54.448;-0.942;2023-11-19T13:38:27;4;3;1
83543;PMS5003;73487;54.448;-0.942;2023-11-19T13:41:27;1;1;1
83543;PMS5003;73487;54.448;-0.942;2023-11-19T13:44:27;1;1;1
83543;PMS5003;73487;54.448;-0.942;2023-11-19T13:47:27;3;2;2
83543;PMS5003;73487;54.448;-0.942;2023-11-19T13:50:27;1;1;1
83543;PMS5003;73487;54.448;-0.942;2023-11-19T13:53:27;2;2;1
83543;PMS5003;73487;54.448;-0.942;2023-11-19T13:56:27;2;2;1
83543;PMS5003;73487;54.448;-0.942;2023-11-19T13:59:27;1;1;1
83543;PMS5003;73487;54.448;-0.942;2023-11-19T14:02:27;1;1;0
83543;PMS5003;73487;54.448;-0.942;2023-11-19T14:05:27;1;1;1
83543;PMS5003;73487;54.448;-0.942;2023-11-19T14:08:27;2;1;0
83543;PMS5003;73487;54.448;-0.942;2023-11-19T14:11:27;1;1;1
83543;PMS5003;73487;54.448;-0.942;2023-11-19T14:14:27;1;0;0
83543;PMS5003;73487;54.448;-0.942;2023-11-19T14:17:27;2;1;0
83543;PMS5003;73487;54.448;-0.942;2023-11-19T14:20:27;1;1;0
83543;PMS5003;73487;54.448;-0.942;2023-11-19T14:23:27;1;1;0
83543;PMS5003;73487;54.448;-0.942;2023-11-19T14:26:27;1;1;0
83543;PMS5003;73487;54.448;-0.942;2023-11-19T14:29:27;0;0;0
83543;PMS5003;73487;54.448;-0.942;2023-11-19T14:32:27;1;1;0
83543;PMS5003;73487;54.448;-0.942;2023-11-19T14:35:27;2;1;0
83543;PMS5003;73487;54.448;-0.942;2023-11-19T14:38:27;1;1;0
83543;PMS5003;73487;54.448;-0.942;2023-11-19T14:41:27;0;0;0
83543;PMS5003;73487;54.448;-0.942;2023-11-19T14:44:27;1;1;1
83543;PMS5003;73487;54.448;-0.942;2023-11-19T14:47:27;1;1;0
83543;PMS5003;73487;54.448;-0.942;2023-11-19T14:50:27;1;1;1
83543;PMS5003;73487;54.448;-0.942;2023-11-19T14:53:27;0;0;0
83543;PMS5003;73487;54.448;-0.942;2023-11-19T14:56:27;1;0;0
83543;PMS5003;73487;54.448;-0.942;2023-11-19T14:59:27;2;2;1
83543;PMS5003;73487;54.448;-0.942;2023-11-19T15:02:27;0;0;0
83543;PMS5003;73487;54.448;-0.942;2023-11-19T15:05:27;2;1;1
83543;PMS5003;73487;54.448;-0.942;2023-11-19T15:08:27;1;1;0
83543;PMS5003;73487;54.448;-0.942;2023-11-19T15:11:27;1;1;0
83543;PMS5003;73487;54.448;-0.942;2023-11-19T15:14:27;1;1;0
83543;PMS5003;73487;54.448;-0.942;2023-11-19T15:17:27;0;0;0
83543;PMS5003;73487;54.448;-0.942;2023-11-19T15:20:27;1;1;0
83543;PMS5003;73487;54.448;-0.942;2023-11-19T15:23:27;1;1;0
83543;PMS5003;73487;54.448;-0.942;2023-11-19T15:26:27;0;0;0
83543;PMS5003;73487;54.448;-0.942;2023-11-19T15:29:27;1;1;0
83543;PMS5003;73487;54.448;-0.942;2023-11-19T15:32:27;0;0;0
83543;PMS5003;73487;54.448;-0.942;2023-11-19T15:35:27;2;1;0
83543;PMS5003;73487;54.448;-0.942;2023-11-19T15:38:27;2;2;1
83543;PMS5003;73487;54.448;-0.942;2023-11-19T15:41:27;1;1;1
83543;PMS5003;73487;54.448;-0.942;2023-11-19T15:44:27;1;0;0
83543;PMS5003;73487;54.448;-0.942;2023-11-19T15:47:27;2;2;1
83543;PMS5003;73487;54.448;-0.942;2023-11-19T15:50:27;2;2;2
83543;PMS5003;73487;54.448;-0.942;2023-11-19T15:53:27;3;2;1
83543;PMS5003;73487;54.448;-0.942;2023-11-19T15:56:27;3;2;1
83543;PMS5003;73487;54.448;-0.942;2023-11-19T15:59:27;2;2;2
83543;PMS5003;73487;54.448;-0.942;2023-11-19T16:02:27;1;1;1
83543;PMS5003;73487;54.448;-0.942;2023-11-19T16:05:27;1;1;1
83543;PMS5003;73487;54.448;-0.942;2023-11-19T16:08:57;1;1;0
83543;PMS5003;73487;54.448;-0.942;2023-11-19T16:11:57;1;1;0
83543;PMS5003;73487;54.448;-0.942;2023-11-19T16:14:57;1;1;0
83543;PMS5003;73487;54.448;-0.942;2023-11-19T16:17:57;1;1;0
83543;PMS5003;73487;54.448;-0.942;2023-11-19T16:20:57;1;1;1
83543;PMS5003;73487;54.448;-0.942;2023-11-19T16:23:57;1;1;0
83543;PMS5003;73487;54.448;-0.942;2023-11-19T16:26:57;1;1;0
83543;PMS5003;73487;54.448;-0.942;2023-11-19T16:29:57;1;1;0
83543;PMS5003;73487;54.448;-0.942;2023-11-19T16:32:57;0;0;0
83543;PMS5003;73487;54.448;-0.942;2023-11-19T16:35:57;0;0;0
83543;PMS5003;73487;54.448;-0.942;2023-11-19T16:38:57;0;0;0
83543;PMS5003;73487;54.448;-0.942;2023-11-19T16:41:57;2;1;0
83543;PMS5003;73487;54.448;-0.942;2023-11-19T16:44:57;2;2;1
83543;PMS5003;73487;54.448;-0.942;2023-11-19T16:47:57;1;1;1
83543;PMS5003;73487;54.448;-0.942;2023-11-19T16:50:57;1;1;1
83543;PMS5003;73487;54.448;-0.942;2023-11-19T16:53:57;2;2;1
83543;PMS5003;73487;54.448;-0.942;2023-11-19T16:56:57;1;1;0
83543;PMS5003;73487;54.448;-0.942;2023-11-19T16:59:57;2;2;1
83543;PMS5003;73487;54.448;-0.942;2023-11-19T17:02:57;1;1;1
83543;PMS5003;73487;54.448;-0.942;2023-11-19T17:05:57;1;1;0
83543;PMS5003;73487;54.448;-0.942;2023-11-19T17:08:57;1;1;0
83543;PMS5003;73487;54.448;-0.942;2023-11-19T17:11:59;1;1;0
83543;PMS5003;73487;54.448;-0.942;2023-11-19T17:14:57;1;1;0
83543;PMS5003;73487;54.448;-0.942;2023-11-19T17:17:57;1;1;1
83543;PMS5003;73487;54.448;-0.942;2023-11-19T17:20:57;1;1;0
83543;PMS5003;73487;54.448;-0.942;2023-11-19T17:23:57;1;1;1
83543;PMS5003;73487;54.448;-0.942;2023-11-19T17:26:57;1;0;0
83543;PMS5003;73487;54.448;-0.942;2023-11-19T17:29:57;0;0;0
83543;PMS5003;73487;54.448;-0.942;2023-11-19T17:32:57;1;0;0
83543;PMS5003;73487;54.448;-0.942;2023-11-19T17:35:57;2;2;1
83543;PMS5003;73487;54.448;-0.942;2023-11-19T17:38:57;1;1;0
83543;PMS5003;73487;54.448;-0.942;2023-11-19T17:41:57;1;1;0
83543;PMS5003;73487;54.448;-0.942;2023-11-19T17:44:57;1;1;0
83543;PMS5003;73487;54.448;-0.942;2023-11-19T17:47:57;0;0;0
83543;PMS5003;73487;54.448;-0.942;2023-11-19T17:50:57;1;1;0
83543;PMS5003;73487;54.448;-0.942;2023-11-19T17:53:57;2;1;1
83543;PMS5003;73487;54.448;-0.942;2023-11-19T17:56:57;0;0;0
83543;PMS5003;73487;54.448;-0.942;2023-11-19T17:59:57;0;0;0
83543;PMS5003;73487;54.448;-0.942;2023-11-19T18:02:57;0;0;0
83543;PMS5003;73487;54.448;-0.942;2023-11-19T18:05:57;0;0;0
83543;PMS5003;73487;54.448;-0.942;2023-11-19T18:08:57;0;0;0
83543;PMS5003;73487;54.448;-0.942;2023-11-19T18:11:57;0;0;0
83543;PMS5003;73487;54.448;-0.942;2023-11-19T18:14:57;0;0;0
83543;PMS5003;73487;54.448;-0.942;2023-11-19T18:17:57;0;0;0
83543;PMS5003;73487;54.448;-0.942;2023-11-19T18:20:57;0;0;0
83543;PMS5003;73487;54.448;-0.942;2023-11-19T18:23:57;4;3;2
83543;PMS5003;73487;54.448;-0.942;2023-11-19T18:26:57;13;9;6
83543;PMS5003;73487;54.448;-0.942;2023-11-19T18:29:57;17;16;7
83543;PMS5003;73487;54.448;-0.942;2023-11-19T18:32:57;11;11;8
83543;PMS5003;73487;54.448;-0.942;2023-11-19T18:35:57;3;3;1
83543;PMS5003;73487;54.448;-0.942;2023-11-19T18:38:57;11;11;8
83543;PMS5003;73487;54.448;-0.942;2023-11-19T18:41:57;7;7;4
83543;PMS5003;73487;54.448;-0.942;2023-11-19T18:44:57;1;1;0
83543;PMS5003;73487;54.448;-0.942;2023-11-19T18:47:57;1;1;0
83543;PMS5003;73487;54.448;-0.942;2023-11-19T18:50:57;0;0;0
83543;PMS5003;73487;54.448;-0.942;2023-11-19T18:53:57;10;9;5
83543;PMS5003;73487;54.448;-0.942;2023-11-19T18:56:57;1;1;1
83543;PMS5003;73487;54.448;-0.942;2023-11-19T18:59:57;0;0;0
83543;PMS5003;73487;54.448;-0.942;2023-11-19T19:02:57;0;0;0
83543;PMS5003;73487;54.448;-0.942;2023-11-19T19:05:57;0;0;0
83543;PMS5003;73487;54.448;-0.942;2023-11-19T19:08:57;7;7;4
83543;PMS5003;73487;54.448;-0.942;2023-11-19T19:11:57;2;2;1
83543;PMS5003;73487;54.448;-0.942;2023-11-19T19:14:57;15;14;7
83543;PMS5003;73487;54.448;-0.942;2023-11-19T19:17:57;7;6;4
83543;PMS5003;73487;54.448;-0.942;2023-11-19T19:20:57;1;1;0
83543;PMS5003;73487;54.448;-0.942;2023-11-19T19:23:57;3;3;2
83543;PMS5003;73487;54.448;-0.942;2023-11-19T19:26:57;4;4;4
83543;PMS5003;73487;54.448;-0.942;2023-11-19T19:29:57;2;2;2
83543;PMS5003;73487;54.448;-0.942;2023-11-19T19:32:57;3;3;2
83543;PMS5003;73487;54.448;-0.942;2023-11-19T19:35:57;1;1;0
83543;PMS5003;73487;54.448;-0.942;2023-11-19T19:38:58;0;0;0
83543;PMS5003;73487;54.448;-0.942;2023-11-19T19:41:57;1;1;0
83543;PMS5003;73487;54.448;-0.942;2023-11-19T19:45:27;2;1;1
83543;PMS5003;73487;54.448;-0.942;2023-11-19T19:48:27;1;1;0
83543;PMS5003;73487;54.448;-0.942;2023-11-19T19:51:27;1;0;0
83543;PMS5003;73487;54.448;-0.942;2023-11-19T19:54:27;1;1;0
83543;PMS5003;73487;54.448;-0.942;2023-11-19T19:57:27;1;1;0
83543;PMS5003;73487;54.448;-0.942;2023-11-19T20:00:27;7;7;5
83543;PMS5003;73487;54.448;-0.942;2023-11-19T20:03:27;3;2;2
83543;PMS5003;73487;54.448;-0.942;2023-11-19T20:06:35;1;1;0
83543;PMS5003;73487;54.448;-0.942;2023-11-19T20:09:27;1;1;0
83543;PMS5003;73487;54.448;-0.942;2023-11-19T20:12:27;1;1;0
83543;PMS5003;73487;54.448;-0.942;2023-11-19T20:15:27;1;0;0
83543;PMS5003;73487;54.448;-0.942;2023-11-19T20:18:27;0;0;0
83543;PMS5003;73487;54.448;-0.942;2023-11-19T20:21:27;0;0;0
83543;PMS5003;73487;54.448;-0.942;2023-11-19T20:24:27;0;0;0
83543;PMS5003;73487;54.448;-0.942;2023-11-19T20:27:27;1;1;0
83543;PMS5003;73487;54.448;-0.942;2023-11-19T20:30:27;2;1;0
83543;PMS5003;73487;54.448;-0.942;2023-11-19T20:33:27;1;1;1
83543;PMS5003;73487;54.448;-0.942;2023-11-19T20:36:27;1;1;1
83543;PMS5003;73487;54.448;-0.942;2023-11-19T20:39:27;2;2;1
83543;PMS5003;73487;54.448;-0.942;2023-11-19T20:42:27;2;2;1